createdAt,value
2019-04-03T00:01:48.151Z,26.50
2019-04-03T00:06:55.181Z,18.07
2019-04-03T00:12:02.354Z,20.43
2019-04-03T00:17:09.934Z,15.93
2019-04-03T00:22:17.122Z,12.30
2019-04-03T00:27:24.275Z,15.50
2019-04-03T00:32:31.642Z,49.50
2019-04-03T00:37:39.531Z,28.60
2019-04-03T00:42:46.647Z,34.10
2019-04-03T00:47:55.383Z,22.47
2019-04-03T00:53:02.687Z,26.70
2019-04-03T00:58:41.806Z,15.83
2019-04-03T01:03:49.181Z,38.60
2019-04-03T01:08:56.252Z,14.27
2019-04-03T01:14:03.557Z,24.37
2019-04-03T01:19:11.114Z,17.97
2019-04-03T01:24:18.197Z,22.70
2019-04-03T01:29:25.526Z,33.10
2019-04-03T01:34:32.736Z,26.53
2019-04-03T01:39:40.344Z,14.27
2019-04-03T01:44:48.411Z,21.03
2019-04-03T01:49:58.146Z,13.17
2019-04-03T01:55:04.778Z,14.63
2019-04-03T02:00:12.367Z,21.17
2019-04-03T02:05:19.468Z,21.17
2019-04-03T02:10:27.801Z,28.93
2019-04-03T02:15:35.054Z,15.70
2019-04-03T02:20:43.331Z,20.60
2019-04-03T02:25:50.404Z,20.40
2019-04-03T02:30:59.269Z,20.40
2019-04-03T02:36:06.639Z,19.50
2019-04-03T02:41:13.876Z,17.43
2019-04-03T02:46:20.905Z,23.40
2019-04-03T02:51:28.404Z,20.90
2019-04-03T02:56:35.477Z,27.03
2019-04-03T03:01:42.762Z,27.57
2019-04-03T03:06:50.320Z,26.80
2019-04-03T03:11:59.099Z,22.23
2019-04-03T03:17:06.525Z,23.97
2019-04-03T03:22:16.859Z,18.17
2019-04-03T03:27:23.579Z,15.60
2019-04-03T03:32:35.262Z,22.17
2019-04-03T03:37:40.452Z,70.93
2019-04-03T03:42:48.661Z,100.80
2019-04-03T03:47:57.087Z,151.47
2019-04-03T03:53:05.026Z,176.67
2019-04-03T03:58:13.684Z,34.30
2019-04-03T04:03:21.632Z,42.43
2019-04-03T04:08:30.675Z,64.10
2019-04-03T04:13:39.165Z,60.47
2019-04-03T04:18:46.973Z,18.33
2019-04-03T04:23:57.247Z,17.03
2019-04-03T04:29:04.909Z,15.50
2019-04-03T04:34:12.186Z,33.80
2019-04-03T04:39:19.405Z,32.33
2019-04-03T04:44:26.927Z,28.87
2019-04-03T04:49:34.043Z,37.13
2019-04-03T04:54:42.947Z,25.87
2019-04-03T04:59:50.921Z,22.77
2019-04-03T05:04:58.052Z,21.20
2019-04-03T05:10:06.611Z,51.83
2019-04-03T05:15:13.909Z,122.93
2019-04-03T05:20:38.880Z,55.75
2019-04-03T05:25:46.106Z,22.63
2019-04-03T05:30:53.287Z,16.83
2019-04-03T05:36:00.457Z,21.83
2019-04-03T05:41:07.548Z,17.93
2019-04-03T05:46:14.778Z,18.63
2019-04-03T05:51:21.854Z,19.90
2019-04-03T05:56:29.726Z,18.10
2019-04-03T06:01:36.810Z,15.50
2019-04-03T06:06:46.058Z,17.40
2019-04-03T06:11:52.861Z,21.80
2019-04-03T06:17:18.098Z,16.43
2019-04-03T06:22:25.395Z,21.83
2019-04-03T06:27:32.746Z,20.13
2019-04-03T06:32:40.200Z,20.37
2019-04-03T06:37:48.287Z,15.47
2019-04-03T06:42:55.434Z,20.93
2019-04-03T06:48:04.273Z,19.40
2019-04-03T06:53:11.429Z,23.73
2019-04-03T06:58:18.633Z,24.07
2019-04-03T07:03:26.198Z,19.03
2019-04-03T07:08:36.204Z,21.50
2019-04-03T07:13:42.987Z,22.43
2019-04-03T07:18:50.401Z,16.63
2019-04-03T07:24:00.115Z,23.90
2019-04-03T07:29:06.644Z,27.20
2019-04-03T07:34:14.156Z,19.43
2019-04-03T07:39:21.655Z,18.17
2019-04-03T07:44:29.813Z,24.90
2019-04-03T07:49:39.374Z,22.43
2019-04-03T07:54:46.450Z,21.50
2019-04-03T07:59:53.774Z,19.40
2019-04-03T08:05:01.353Z,17.60
2019-04-03T08:10:09.408Z,20.93
2019-04-03T08:15:17.508Z,20.43
2019-04-03T08:20:25.716Z,21.00
2019-04-03T08:25:34.120Z,28.47
2019-04-03T08:30:41.246Z,22.30
2019-04-03T08:35:48.630Z,25.27
2019-04-03T08:40:56.006Z,21.05
2019-04-03T08:46:03.123Z,20.20
2019-04-03T08:51:10.418Z,19.98
2019-04-03T08:56:17.606Z,22.55
2019-04-03T09:01:26.147Z,22.23
2019-04-03T09:06:33.295Z,19.13
2019-04-03T09:11:40.416Z,25.10
2019-04-03T09:16:49.451Z,20.13
2019-04-03T09:21:56.858Z,20.10
2019-04-03T09:27:03.947Z,28.37
2019-04-03T09:32:12.859Z,20.92
2019-04-03T09:37:20.179Z,23.40
2019-04-03T09:42:28.762Z,24.17
2019-04-03T09:47:36.542Z,20.13
2019-04-03T09:52:48.699Z,20.03
2019-04-03T09:57:53.372Z,21.20
2019-04-03T10:03:00.770Z,33.00
2019-04-03T10:08:08.981Z,29.07
2019-04-03T10:13:17.068Z,24.97
2019-04-03T10:18:26.060Z,21.87
2019-04-03T10:23:33.291Z,20.77
2019-04-03T10:28:42.750Z,22.87
2019-04-03T10:33:49.285Z,19.93
2019-04-03T10:38:56.894Z,29.77
2019-04-03T10:44:04.893Z,22.40
2019-04-03T10:49:12.005Z,17.73
2019-04-03T10:54:19.326Z,17.30
2019-04-03T10:59:26.460Z,17.60
2019-04-03T11:04:33.584Z,20.60
2019-04-03T11:09:41.165Z,21.60
2019-04-03T11:14:48.356Z,20.53
2019-04-03T11:19:55.549Z,23.07
2019-04-03T11:25:02.991Z,22.10
2019-04-03T11:30:17.082Z,23.90
2019-04-03T11:35:22.492Z,18.32
2019-04-03T11:40:30.056Z,25.37
2019-04-03T11:45:37.218Z,20.67
2019-04-03T11:50:45.594Z,23.30
2019-04-03T11:55:53.050Z,24.57
2019-04-03T12:01:00.512Z,25.60
2019-04-03T12:06:07.969Z,27.17
2019-04-03T12:11:16.301Z,24.63
2019-04-03T12:16:24.877Z,24.13
2019-04-03T12:21:32.264Z,23.87
2019-04-03T12:26:42.276Z,22.53
2019-04-03T12:31:49.194Z,20.37
2019-04-03T12:36:56.286Z,18.47
2019-04-03T12:42:03.650Z,20.70
2019-04-03T12:47:12.955Z,23.70
2019-04-03T12:52:19.615Z,24.50
2019-04-03T12:57:26.897Z,23.07
2019-04-03T13:02:34.714Z,23.17
2019-04-03T13:07:41.991Z,22.10
2019-04-03T13:12:49.392Z,20.20
2019-04-03T13:17:56.632Z,21.82
2019-04-03T13:23:03.993Z,24.30
2019-04-03T13:28:11.458Z,23.43
2019-04-03T13:33:18.615Z,21.85
2019-04-03T13:38:28.200Z,19.23
2019-04-03T13:43:34.783Z,18.00
2019-04-03T13:48:44.078Z,35.43
2019-04-03T13:53:50.967Z,24.30
2019-04-03T13:58:59.502Z,69.97
2019-04-03T14:04:06.886Z,23.90
2019-04-03T14:09:16.531Z,22.67
2019-04-03T14:14:22.772Z,26.77
2019-04-03T14:19:41.819Z,18.83
2019-04-03T14:24:44.910Z,22.73
2019-04-03T14:29:47.802Z,23.87
2019-04-03T14:35:05.226Z,25.73
2019-04-03T14:40:06.082Z,24.27
2019-04-03T14:45:14.430Z,22.62
2019-04-03T14:50:22.494Z,22.45
2019-04-03T14:55:29.928Z,20.40
2019-04-03T15:00:37.188Z,20.73
2019-04-03T15:05:44.905Z,22.10
2019-04-03T15:10:52.307Z,22.40
2019-04-03T15:16:00.646Z,18.87
2019-04-03T15:21:08.269Z,22.83
2019-04-03T15:26:17.153Z,20.87
2019-04-03T15:31:24.656Z,17.17
2019-04-03T15:36:34.921Z,23.23
2019-04-03T15:41:41.439Z,35.83
2019-04-03T15:46:48.712Z,27.37
2019-04-03T15:51:56.238Z,73.53
2019-04-03T15:57:03.420Z,32.63
2019-04-03T16:02:12.453Z,17.33
2019-04-03T16:07:19.428Z,31.53
2019-04-03T16:12:28.104Z,24.57
2019-04-03T16:17:37.838Z,37.07
2019-04-03T16:22:44.931Z,38.87
2019-04-03T16:27:52.712Z,39.17
2019-04-03T16:33:03.558Z,40.20
2019-04-03T16:38:09.280Z,33.43
2019-04-03T16:43:16.636Z,25.30
2019-04-03T16:48:24.007Z,29.37
2019-04-03T16:53:31.528Z,35.90
2019-04-03T16:58:39.532Z,52.87
2019-04-03T17:03:46.578Z,42.63
2019-04-03T17:08:53.782Z,51.53
2019-04-03T17:14:01.172Z,39.67
2019-04-03T17:19:08.348Z,54.97
2019-04-03T17:24:16.051Z,46.75
2019-04-03T17:29:24.787Z,36.23
2019-04-03T17:34:32.012Z,39.33
2019-04-03T17:39:39.163Z,54.60
2019-04-03T17:44:46.283Z,42.00
2019-04-03T17:49:55.406Z,37.87
2019-04-03T17:55:02.549Z,89.23
2019-04-03T18:00:13.467Z,137.90
2019-04-03T18:05:21.574Z,160.90
2019-04-03T18:10:30.496Z,218.30
2019-04-03T18:15:37.587Z,296.90
2019-04-03T18:20:45.248Z,166.83
2019-04-03T18:25:52.960Z,103.70
2019-04-03T18:31:00.105Z,27.73
2019-04-03T18:36:07.304Z,77.13
2019-04-03T18:41:14.956Z,44.77
2019-04-03T18:46:31.950Z,26.80
2019-04-03T18:51:32.014Z,33.33
2019-04-03T18:56:39.495Z,36.67
2019-04-03T19:01:50.118Z,33.43
2019-04-03T19:06:57.485Z,43.33
2019-04-03T19:12:08.591Z,35.30
2019-04-03T19:17:15.184Z,31.73
2019-04-03T19:22:25.332Z,33.30
2019-04-03T19:27:31.087Z,24.20
2019-04-03T19:32:42.753Z,31.13
2019-04-03T19:37:48.446Z,33.97
2019-04-03T19:42:55.690Z,32.50
2019-04-03T19:48:02.670Z,24.43
2019-04-03T19:53:12.966Z,39.47
2019-04-03T19:58:18.803Z,31.60
2019-04-03T20:03:25.893Z,24.10
2019-04-03T20:08:33.231Z,21.87
2019-04-03T20:13:40.551Z,63.57
2019-04-03T20:18:48.943Z,30.83
2019-04-03T20:23:56.638Z,27.62
2019-04-03T20:29:03.810Z,60.23
2019-04-03T20:34:13.095Z,52.38
2019-04-03T20:39:20.140Z,42.75
2019-04-03T20:44:27.237Z,28.80
2019-04-03T20:49:35.735Z,33.27
2019-04-03T20:54:43.170Z,41.47
2019-04-03T20:59:58.797Z,31.20
2019-04-03T21:04:59.187Z,25.50
2019-04-03T21:10:08.060Z,41.18
2019-04-03T21:15:15.304Z,22.33
2019-04-03T21:20:26.715Z,30.53
2019-04-03T21:25:36.126Z,33.67
2019-04-03T21:30:43.623Z,43.83
2019-04-03T21:35:50.718Z,40.80
2019-04-03T21:40:57.915Z,37.03
2019-04-03T21:46:07.027Z,36.13
2019-04-03T21:51:15.676Z,37.10
2019-04-03T21:56:22.754Z,28.97
2019-04-03T22:01:29.835Z,25.57
2019-04-03T22:06:38.130Z,31.73
2019-04-03T22:11:45.344Z,32.83
2019-04-03T22:16:52.402Z,30.23
2019-04-03T22:22:01.052Z,31.77
2019-04-03T22:27:11.355Z,36.40
2019-04-03T22:32:17.301Z,25.15
2019-04-03T22:37:24.707Z,25.80
2019-04-03T22:42:31.805Z,31.17
2019-04-03T22:47:38.906Z,26.97
2019-04-03T22:52:45.969Z,22.50
2019-04-03T22:57:53.182Z,32.07
2019-04-03T23:03:02.570Z,18.67
2019-04-03T23:08:09.328Z,22.03
2019-04-03T23:13:16.310Z,19.17
2019-04-03T23:18:23.510Z,27.98
2019-04-03T23:23:30.616Z,21.87
2019-04-03T23:28:38.100Z,19.30
2019-04-03T23:33:45.965Z,32.35
2019-04-03T23:38:56.454Z,27.87
2019-04-03T23:44:05.443Z,22.83
2019-04-03T23:49:12.565Z,19.73
2019-04-03T23:54:19.677Z,19.65
2019-04-03T23:59:26.767Z,21.57
